createdAt,value
2019-06-26T00:02:23.705Z,1.62
2019-06-26T00:04:52.623Z,2.67
2019-06-26T00:07:21.589Z,2.00
2019-06-26T00:09:50.556Z,2.37
2019-06-26T00:12:19.486Z,2.37
2019-06-26T00:14:48.404Z,1.92
2019-06-26T00:17:17.452Z,1.75
2019-06-26T00:19:46.375Z,1.60
2019-06-26T00:22:15.310Z,1.92
2019-06-26T00:24:44.321Z,2.58
2019-06-26T00:27:13.262Z,1.92
2019-06-26T00:29:42.181Z,1.85
2019-06-26T00:32:11.194Z,2.20
2019-06-26T00:34:40.113Z,3.12
2019-06-26T00:37:09.050Z,1.90
2019-06-26T00:39:38.060Z,2.17
2019-06-26T00:42:07.006Z,2.35
2019-06-26T00:44:35.946Z,2.10
2019-06-26T00:47:05.071Z,1.80
2019-06-26T00:49:34.023Z,1.95
2019-06-26T00:52:02.958Z,1.55
2019-06-26T00:54:32.157Z,2.15
2019-06-26T00:57:02.916Z,1.85
2019-06-26T00:59:32.025Z,2.12
2019-06-26T01:02:01.099Z,1.80
2019-06-26T01:04:31.602Z,2.72
2019-06-26T01:07:00.583Z,1.80
2019-06-26T01:09:29.694Z,1.55
2019-06-26T01:11:58.633Z,1.80
2019-06-26T01:14:27.637Z,2.17
2019-06-26T01:16:56.638Z,2.30
2019-06-26T01:19:25.607Z,2.17
2019-06-26T01:21:54.598Z,1.92
2019-06-26T01:24:23.636Z,2.08
2019-06-26T01:26:52.569Z,2.10
2019-06-26T01:29:21.472Z,2.30
2019-06-26T01:31:50.450Z,1.90
2019-06-26T01:34:19.387Z,2.30
2019-06-26T01:36:49.897Z,1.80
2019-06-26T01:39:18.923Z,2.15
2019-06-26T01:41:47.947Z,1.75
2019-06-26T01:44:16.880Z,1.98
2019-06-26T01:46:45.903Z,2.10
2019-06-26T01:49:14.841Z,1.95
2019-06-26T01:51:43.778Z,1.60
2019-06-26T01:54:12.748Z,1.85
2019-06-26T01:56:41.680Z,2.08
2019-06-26T01:59:10.877Z,1.57
2019-06-26T02:01:39.883Z,2.10
2019-06-26T02:04:09.295Z,1.65
2019-06-26T02:06:38.231Z,1.80
2019-06-26T02:09:07.278Z,1.50
2019-06-26T02:11:36.218Z,1.87
2019-06-26T02:14:05.250Z,2.42
2019-06-26T02:16:34.327Z,1.70
2019-06-26T02:19:04.804Z,1.80
2019-06-26T02:21:33.761Z,1.60
2019-06-26T02:24:02.740Z,1.95
2019-06-26T02:26:31.649Z,1.47
2019-06-26T02:29:00.560Z,1.70
2019-06-26T02:31:29.500Z,1.62
2019-06-26T02:33:58.400Z,2.05
2019-06-26T02:36:27.324Z,1.60
2019-06-26T02:38:56.269Z,1.77
2019-06-26T02:41:25.190Z,1.52
2019-06-26T02:43:54.089Z,2.10
2019-06-26T02:46:23.035Z,2.52
2019-06-26T02:48:51.996Z,1.92
2019-06-26T02:51:20.913Z,1.70
2019-06-26T02:53:49.947Z,1.37
2019-06-26T02:56:18.856Z,2.25
2019-06-26T02:58:47.764Z,1.82
2019-06-26T03:01:16.726Z,1.95
2019-06-26T03:03:45.631Z,2.00
2019-06-26T03:06:14.539Z,2.17
2019-06-26T03:08:43.655Z,1.60
2019-06-26T03:11:12.608Z,1.90
2019-06-26T03:13:41.566Z,1.55
2019-06-26T03:16:10.501Z,1.87
2019-06-26T03:18:39.396Z,1.90
2019-06-26T03:21:08.400Z,1.60
2019-06-26T03:23:37.509Z,2.10
2019-06-26T03:26:06.483Z,1.55
2019-06-26T03:28:35.394Z,2.40
2019-06-26T03:31:05.282Z,1.80
2019-06-26T03:33:34.194Z,1.72
2019-06-26T03:36:03.163Z,1.82
2019-06-26T03:38:32.153Z,1.82
2019-06-26T03:41:01.116Z,2.00
2019-06-26T03:43:30.142Z,1.85
2019-06-26T03:45:59.093Z,1.75
2019-06-26T03:48:28.002Z,1.52
2019-06-26T03:50:56.927Z,1.98
2019-06-26T03:53:25.942Z,1.75
2019-06-26T03:55:54.899Z,1.62
2019-06-26T03:58:23.900Z,2.20
2019-06-26T04:00:52.905Z,2.37
2019-06-26T04:03:21.984Z,1.87
2019-06-26T04:05:53.630Z,1.70
2019-06-26T04:08:22.539Z,1.85
2019-06-26T04:10:51.465Z,1.92
2019-06-26T04:13:20.530Z,1.77
2019-06-26T04:15:50.998Z,1.70
2019-06-26T04:18:20.146Z,1.57
2019-06-26T04:20:49.070Z,2.00
2019-06-26T04:23:17.992Z,1.60
2019-06-26T04:25:46.924Z,2.25
2019-06-26T04:28:15.879Z,1.60
2019-06-26T04:30:44.818Z,1.52
2019-06-26T04:33:13.773Z,1.87
2019-06-26T04:35:43.690Z,1.95
2019-06-26T04:38:12.647Z,2.00
2019-06-26T04:40:41.558Z,1.90
2019-06-26T04:43:10.507Z,2.02
2019-06-26T04:45:39.446Z,1.90
2019-06-26T04:48:08.356Z,1.90
2019-06-26T04:50:37.321Z,1.90
2019-06-26T04:53:06.350Z,2.00
2019-06-26T04:55:35.274Z,2.10
2019-06-26T04:58:04.284Z,2.10
2019-06-26T05:00:33.182Z,1.95
2019-06-26T05:03:02.087Z,1.90
2019-06-26T05:05:39.519Z,2.35
2019-06-26T05:08:01.635Z,1.98
2019-06-26T05:10:30.623Z,1.90
2019-06-26T05:12:59.527Z,1.60
2019-06-26T05:15:28.446Z,1.80
2019-06-26T05:17:57.403Z,2.22
2019-06-26T05:20:26.323Z,1.92
2019-06-26T05:22:55.222Z,1.87
2019-06-26T05:25:24.233Z,2.08
2019-06-26T05:27:53.382Z,2.10
2019-06-26T05:30:22.532Z,1.92
2019-06-26T05:32:51.495Z,2.08
2019-06-26T05:35:20.535Z,2.00
2019-06-26T05:37:49.470Z,1.70
2019-06-26T05:40:18.777Z,2.00
2019-06-26T05:42:47.696Z,1.67
2019-06-26T05:45:18.282Z,2.00
2019-06-26T05:47:47.383Z,2.10
2019-06-26T05:50:16.930Z,1.87
2019-06-26T05:52:45.835Z,1.90
2019-06-26T05:55:15.132Z,1.90
2019-06-26T05:57:44.054Z,2.22
2019-06-26T06:00:13.478Z,1.70
2019-06-26T06:02:42.443Z,2.20
2019-06-26T06:05:11.656Z,1.77
2019-06-26T06:07:40.606Z,1.80
2019-06-26T06:10:09.945Z,2.40
2019-06-26T06:12:39.826Z,2.05
2019-06-26T06:15:09.413Z,2.22
2019-06-26T06:17:38.318Z,2.08
2019-06-26T06:20:07.950Z,2.10
2019-06-26T06:22:37.101Z,1.95
2019-06-26T06:25:06.724Z,1.92
2019-06-26T06:27:35.757Z,2.05
2019-06-26T06:30:06.234Z,1.70
2019-06-26T06:32:35.155Z,2.00
2019-06-26T06:35:04.779Z,2.25
2019-06-26T06:37:33.730Z,2.20
2019-06-26T06:40:02.779Z,2.33
2019-06-26T06:42:31.821Z,2.10
2019-06-26T06:45:00.784Z,2.02
2019-06-26T06:47:29.706Z,2.00
2019-06-26T06:49:58.608Z,1.65
2019-06-26T06:52:27.557Z,1.70
2019-06-26T06:54:56.477Z,1.92
2019-06-26T06:57:25.367Z,2.70
2019-06-26T06:59:54.308Z,1.90
2019-06-26T07:02:23.263Z,1.72
2019-06-26T07:04:53.035Z,1.62
2019-06-26T07:07:22.003Z,1.80
2019-06-26T07:09:56.059Z,1.80
2019-06-26T07:12:33.754Z,1.90
2019-06-26T07:15:13.493Z,2.08
2019-06-26T07:17:57.569Z,2.00
2019-06-26T07:20:33.793Z,1.90
2019-06-26T07:23:13.945Z,2.10
2019-06-26T07:25:51.108Z,1.90
2019-06-26T07:28:29.587Z,1.85
2019-06-26T07:31:05.384Z,1.80
2019-06-26T07:33:44.423Z,1.90
2019-06-26T07:36:22.753Z,1.62
2019-06-26T07:39:00.281Z,1.57
2019-06-26T07:41:38.787Z,1.62
2019-06-26T07:44:17.268Z,1.92
2019-06-26T07:46:57.114Z,1.80
2019-06-26T07:49:33.226Z,1.98
2019-06-26T07:52:12.761Z,1.55
2019-06-26T07:54:51.210Z,1.77
2019-06-26T07:57:33.241Z,1.37
2019-06-26T08:00:18.043Z,1.47
2019-06-26T08:02:53.339Z,1.50
2019-06-26T08:05:28.280Z,1.40
2019-06-26T08:08:08.146Z,1.70
2019-06-26T08:10:45.706Z,1.77
2019-06-26T08:13:28.207Z,1.40
2019-06-26T08:16:07.723Z,1.60
2019-06-26T08:18:50.233Z,1.52
2019-06-26T08:21:30.108Z,1.80
2019-06-26T08:24:09.412Z,1.75
2019-06-26T08:26:52.760Z,1.80
2019-06-26T08:29:31.686Z,1.65
2019-06-26T08:32:12.596Z,1.52
2019-06-26T08:34:56.798Z,1.70
2019-06-26T08:37:37.319Z,1.67
2019-06-26T08:40:19.362Z,1.35
2019-06-26T08:42:53.573Z,1.72
2019-06-26T08:45:29.429Z,1.72
2019-06-26T08:48:22.893Z,1.90
2019-06-26T08:50:48.423Z,1.82
2019-06-26T08:53:32.465Z,1.80
2019-06-26T08:56:12.350Z,1.85
2019-06-26T08:58:52.013Z,1.87
2019-06-26T09:01:35.031Z,1.60
2019-06-26T09:04:17.894Z,1.70
2019-06-26T09:07:00.702Z,1.50
2019-06-26T09:09:43.367Z,1.60
2019-06-26T09:12:26.126Z,1.70
2019-06-26T09:15:10.586Z,1.60
2019-06-26T09:17:46.122Z,1.67
2019-06-26T09:20:28.730Z,1.90
2019-06-26T09:23:08.087Z,1.60
2019-06-26T09:25:47.990Z,2.10
2019-06-26T09:28:28.463Z,1.75
2019-06-26T09:31:08.434Z,1.85
2019-06-26T09:33:44.553Z,1.92
2019-06-26T09:36:24.668Z,1.80
2019-06-26T09:39:04.280Z,1.87
2019-06-26T09:41:44.319Z,1.82
2019-06-26T09:44:26.127Z,1.45
2019-06-26T09:47:10.940Z,1.98
2019-06-26T09:49:48.175Z,1.75
2019-06-26T09:52:32.459Z,1.72
2019-06-26T09:55:17.914Z,1.98
2019-06-26T09:58:03.308Z,1.62
2019-06-26T10:00:43.190Z,1.80
2019-06-26T10:03:23.205Z,1.70
2019-06-26T10:06:15.277Z,1.60
2019-06-26T10:08:58.614Z,1.52
2019-06-26T10:11:41.587Z,1.80
2019-06-26T10:14:24.672Z,2.67
2019-06-26T10:17:04.831Z,1.60
2019-06-26T10:19:43.256Z,1.52
2019-06-26T10:22:22.058Z,1.70
2019-06-26T10:25:02.398Z,1.90
2019-06-26T10:27:42.475Z,1.70
2019-06-26T10:30:23.023Z,1.50
2019-06-26T10:33:09.116Z,1.80
2019-06-26T10:35:57.415Z,1.90
2019-06-26T10:38:40.779Z,1.90
2019-06-26T10:41:20.181Z,2.10
2019-06-26T10:43:57.544Z,2.37
2019-06-26T10:46:40.602Z,1.90
2019-06-26T10:49:27.087Z,1.82
2019-06-26T10:51:58.215Z,1.70
2019-06-26T10:54:50.722Z,1.80
2019-06-26T10:57:31.082Z,1.70
2019-06-26T11:00:11.175Z,1.70
2019-06-26T11:02:51.324Z,1.90
2019-06-26T11:05:33.735Z,2.08
2019-06-26T11:08:11.990Z,1.85
2019-06-26T11:10:52.213Z,1.87
2019-06-26T11:13:32.435Z,1.75
2019-06-26T11:16:15.093Z,1.87
2019-06-26T11:18:57.964Z,2.10
2019-06-26T11:21:38.150Z,1.80
2019-06-26T11:24:16.111Z,1.87
2019-06-26T11:26:55.271Z,2.00
2019-06-26T11:29:34.755Z,2.00
2019-06-26T11:32:14.993Z,1.90
2019-06-26T11:34:55.339Z,1.72
2019-06-26T11:37:35.391Z,1.80
2019-06-26T11:40:21.475Z,1.72
2019-06-26T11:42:58.084Z,1.60
2019-06-26T11:45:41.555Z,1.70
2019-06-26T11:48:23.916Z,1.40
2019-06-26T11:51:03.817Z,1.57
2019-06-26T11:53:44.191Z,1.40
2019-06-26T11:56:23.863Z,1.57
2019-06-26T11:59:04.087Z,1.30
2019-06-26T12:01:43.280Z,1.40
2019-06-26T12:04:24.752Z,1.60
2019-06-26T12:07:04.826Z,1.37
2019-06-26T12:09:45.017Z,1.50
2019-06-26T12:12:28.215Z,1.32
2019-06-26T12:15:05.656Z,1.55
2019-06-26T12:17:44.954Z,1.30
2019-06-26T12:20:24.802Z,1.42
2019-06-26T12:23:04.814Z,1.10
2019-06-26T12:25:45.067Z,1.42
2019-06-26T12:28:22.089Z,1.40
2019-06-26T12:31:00.390Z,1.20
2019-06-26T12:33:38.301Z,1.50
2019-06-26T12:36:18.490Z,1.35
2019-06-26T12:38:55.928Z,1.40
2019-06-26T12:41:43.250Z,1.35
2019-06-26T12:44:12.247Z,1.45
2019-06-26T12:46:48.506Z,1.20
2019-06-26T12:49:28.270Z,1.20
2019-06-26T12:52:10.712Z,1.50
2019-06-26T12:54:53.348Z,1.40
2019-06-26T12:57:33.585Z,1.47
2019-06-26T13:00:16.397Z,1.40
2019-06-26T13:02:55.915Z,1.30
2019-06-26T13:05:50.671Z,0.95
2019-06-26T13:08:34.682Z,1.20
2019-06-26T13:11:14.499Z,1.20
2019-06-26T13:14:01.413Z,1.32
2019-06-26T13:16:28.847Z,1.37
2019-06-26T13:19:07.622Z,1.22
2019-06-26T13:21:47.531Z,1.42
2019-06-26T13:24:26.857Z,1.60
2019-06-26T13:27:05.932Z,1.35
2019-06-26T13:29:48.793Z,1.50
2019-06-26T13:32:28.564Z,1.22
2019-06-26T13:35:06.907Z,1.42
2019-06-26T13:37:48.258Z,1.30
2019-06-26T13:40:25.255Z,1.70
2019-06-26T13:43:05.105Z,1.37
2019-06-26T13:45:47.583Z,1.50
2019-06-26T13:48:32.495Z,1.30
2019-06-26T13:51:12.437Z,1.40
2019-06-26T13:53:46.580Z,1.20
2019-06-26T13:56:26.882Z,1.30
2019-06-26T13:59:14.145Z,1.12
2019-06-26T14:01:55.734Z,1.30
2019-06-26T14:04:38.463Z,1.62
2019-06-26T14:07:19.708Z,1.20
2019-06-26T14:10:02.360Z,1.20
2019-06-26T14:12:42.974Z,1.15
2019-06-26T14:15:22.571Z,1.47
2019-06-26T14:18:05.676Z,1.22
2019-06-26T14:20:34.664Z,1.45
2019-06-26T14:23:03.613Z,1.30
2019-06-26T14:25:32.505Z,1.40
2019-06-26T14:28:01.498Z,1.50
2019-06-26T14:30:30.404Z,1.30
2019-06-26T14:32:59.361Z,1.62
2019-06-26T14:35:28.311Z,1.40
2019-06-26T14:37:57.237Z,1.27
2019-06-26T14:40:26.139Z,1.40
2019-06-26T14:42:55.094Z,1.65
2019-06-26T14:45:24.036Z,1.40
2019-06-26T14:47:52.943Z,1.20
2019-06-26T14:50:21.899Z,1.60
2019-06-26T14:52:50.964Z,1.70
2019-06-26T14:55:21.620Z,1.15
2019-06-26T14:57:50.572Z,1.42
2019-06-26T15:00:19.826Z,1.72
2019-06-26T15:02:48.732Z,1.67
2019-06-26T15:05:17.806Z,1.75
2019-06-26T15:07:49.977Z,2.20
2019-06-26T15:10:28.126Z,2.45
2019-06-26T15:12:57.059Z,2.35
2019-06-26T15:15:26.021Z,2.50
2019-06-26T15:17:54.948Z,2.90
2019-06-26T15:20:23.889Z,2.70
2019-06-26T15:22:53.063Z,3.00
2019-06-26T15:25:22.008Z,2.77
2019-06-26T15:27:50.937Z,2.47
2019-06-26T15:30:20.275Z,2.92
2019-06-26T15:32:49.183Z,3.02
2019-06-26T15:35:18.227Z,2.90
2019-06-26T15:37:47.492Z,2.90
2019-06-26T15:40:16.406Z,2.85
2019-06-26T15:42:48.858Z,2.80
2019-06-26T15:45:16.630Z,2.85
2019-06-26T15:47:45.545Z,2.95
2019-06-26T15:50:14.575Z,3.00
2019-06-26T15:52:43.580Z,2.98
2019-06-26T15:55:12.715Z,2.85
2019-06-26T15:57:41.626Z,3.22
2019-06-26T16:00:11.083Z,2.90
2019-06-26T16:02:39.987Z,3.00
2019-06-26T16:05:09.458Z,2.77
2019-06-26T16:07:38.471Z,2.87
2019-06-26T16:10:07.983Z,2.80
2019-06-26T16:12:36.891Z,2.77
2019-06-26T16:15:06.933Z,3.10
2019-06-26T16:17:40.547Z,3.08
2019-06-26T16:20:10.968Z,3.02
2019-06-26T16:22:39.873Z,2.70
2019-06-26T16:25:08.880Z,2.83
2019-06-26T16:27:37.873Z,2.72
2019-06-26T16:30:07.420Z,2.72
2019-06-26T16:32:36.331Z,2.33
2019-06-26T16:35:11.996Z,2.65
2019-06-26T16:37:38.992Z,3.08
2019-06-26T16:40:07.941Z,2.50
2019-06-26T16:42:36.924Z,2.33
2019-06-26T16:45:09.593Z,2.30
2019-06-26T16:47:38.598Z,2.40
2019-06-26T16:50:08.304Z,2.35
2019-06-26T16:52:48.630Z,2.70
2019-06-26T16:55:08.038Z,2.40
2019-06-26T16:57:37.074Z,2.70
2019-06-26T17:00:10.444Z,2.77
2019-06-26T17:02:39.611Z,2.60
2019-06-26T17:05:08.919Z,2.30
2019-06-26T17:07:37.848Z,2.50
2019-06-26T17:10:08.074Z,2.27
2019-06-26T17:12:36.993Z,2.27
2019-06-26T17:15:10.327Z,2.50
2019-06-26T17:17:39.443Z,2.67
2019-06-26T17:20:08.788Z,2.30
2019-06-26T17:22:37.763Z,2.35
2019-06-26T17:25:07.705Z,2.30
2019-06-26T17:27:36.668Z,2.50
2019-06-26T17:30:09.128Z,2.22
2019-06-26T17:32:38.000Z,2.30
2019-06-26T17:35:07.643Z,2.42
2019-06-26T17:37:36.712Z,2.50
2019-06-26T17:40:07.065Z,2.22
2019-06-26T17:42:36.023Z,2.30
2019-06-26T17:45:06.547Z,2.40
2019-06-26T17:47:35.454Z,2.33
2019-06-26T17:50:06.099Z,2.62
2019-06-26T17:52:38.226Z,2.37
2019-06-26T17:55:08.883Z,2.67
2019-06-26T17:57:37.830Z,2.67
2019-06-26T18:00:11.668Z,2.20
2019-06-26T18:02:40.566Z,2.30
2019-06-26T18:05:11.135Z,2.15
2019-06-26T18:07:40.090Z,2.55
2019-06-26T18:10:09.694Z,2.25
2019-06-26T18:12:38.616Z,2.70
2019-06-26T18:15:12.574Z,2.52
2019-06-26T18:17:43.088Z,2.80
2019-06-26T18:20:12.217Z,3.08
2019-06-26T18:22:41.195Z,2.47
2019-06-26T18:25:10.284Z,2.50
2019-06-26T18:27:39.236Z,2.45
2019-06-26T18:30:08.839Z,3.00
2019-06-26T18:32:37.871Z,2.70
2019-06-26T18:35:07.152Z,2.40
2019-06-26T18:37:36.094Z,2.58
2019-06-26T18:40:06.407Z,2.20
2019-06-26T18:42:36.127Z,2.40
2019-06-26T18:45:06.684Z,2.60
2019-06-26T18:47:35.632Z,2.83
2019-06-26T18:50:07.425Z,2.30
2019-06-26T18:52:36.335Z,3.00
2019-06-26T18:55:06.836Z,2.55
2019-06-26T18:57:35.778Z,2.85
2019-06-26T19:00:06.634Z,2.67
2019-06-26T19:02:35.769Z,2.87
2019-06-26T19:05:07.308Z,2.70
2019-06-26T19:07:36.247Z,2.67
2019-06-26T19:10:08.265Z,2.80
2019-06-26T19:12:37.962Z,2.65
2019-06-26T19:15:08.297Z,2.40
2019-06-26T19:17:42.405Z,2.08
2019-06-26T19:20:11.488Z,2.02
2019-06-26T19:22:40.434Z,2.20
2019-06-26T19:25:09.839Z,2.60
2019-06-26T19:27:38.746Z,2.20
2019-06-26T19:30:10.310Z,2.27
2019-06-26T19:32:39.200Z,2.05
2019-06-26T19:35:18.638Z,2.10
2019-06-26T19:37:39.628Z,1.90
2019-06-26T19:40:09.191Z,1.80
2019-06-26T19:42:38.279Z,1.25
2019-06-26T19:45:12.866Z,1.32
2019-06-26T19:47:41.758Z,1.42
2019-06-26T19:50:10.875Z,1.20
2019-06-26T19:52:39.819Z,1.12
2019-06-26T19:55:09.111Z,1.27
2019-06-26T19:57:38.003Z,1.20
2019-06-26T20:00:09.829Z,1.07
2019-06-26T20:02:38.851Z,1.20
2019-06-26T20:05:08.791Z,1.02
2019-06-26T20:07:37.842Z,1.20
2019-06-26T20:10:07.647Z,0.90
2019-06-26T20:12:36.536Z,1.30
2019-06-26T20:15:07.221Z,1.20
2019-06-26T20:17:36.212Z,1.07
2019-06-26T20:20:08.819Z,1.40
2019-06-26T20:22:37.792Z,1.72
2019-06-26T20:25:09.117Z,1.10
2019-06-26T20:27:38.128Z,1.32
2019-06-26T20:30:09.780Z,1.25
2019-06-26T20:32:38.775Z,1.50
2019-06-26T20:35:11.086Z,1.35
2019-06-26T20:37:40.117Z,1.30
2019-06-26T20:40:09.295Z,1.50
2019-06-26T20:42:38.195Z,1.22
2019-06-26T20:45:07.477Z,1.80
2019-06-26T20:47:36.409Z,1.37
2019-06-26T20:50:08.197Z,1.20
2019-06-26T20:52:37.116Z,1.25
2019-06-26T20:55:06.532Z,1.37
2019-06-26T20:57:35.478Z,1.57
2019-06-26T21:00:06.762Z,1.37
2019-06-26T21:02:35.761Z,1.45
2019-06-26T21:05:06.712Z,1.60
2019-06-26T21:07:35.616Z,1.40
2019-06-26T21:10:05.034Z,2.00
2019-06-26T21:12:34.054Z,1.70
2019-06-26T21:15:02.996Z,1.62
2019-06-26T21:17:31.909Z,1.52
2019-06-26T21:20:00.927Z,1.50
2019-06-26T21:22:29.832Z,2.10
2019-06-26T21:25:13.534Z,1.92
2019-06-26T21:27:32.158Z,1.90
2019-06-26T21:30:00.152Z,1.98
2019-06-26T21:32:29.107Z,2.00
2019-06-26T21:34:58.062Z,1.72
2019-06-26T21:37:26.983Z,2.05
2019-06-26T21:39:55.888Z,2.85
2019-06-26T21:42:24.847Z,1.90
2019-06-26T21:44:53.760Z,2.60
2019-06-26T21:47:22.757Z,2.05
2019-06-26T21:49:51.772Z,3.05
2019-06-26T21:52:20.709Z,2.67
2019-06-26T21:54:49.743Z,1.90
2019-06-26T21:57:18.702Z,2.40
2019-06-26T21:59:47.644Z,2.65
2019-06-26T22:02:16.573Z,1.75
2019-06-26T22:04:45.589Z,2.10
2019-06-26T22:07:14.480Z,2.22
2019-06-26T22:09:43.376Z,2.30
2019-06-26T22:12:12.746Z,2.80
2019-06-26T22:14:41.705Z,2.60
2019-06-26T22:17:10.597Z,2.58
2019-06-26T22:19:39.554Z,2.37
2019-06-26T22:22:08.466Z,2.60
2019-06-26T22:24:37.365Z,2.00
2019-06-26T22:27:06.452Z,2.37
2019-06-26T22:29:35.478Z,2.25
2019-06-26T22:32:04.538Z,2.50
2019-06-26T22:34:33.484Z,2.83
2019-06-26T22:37:02.410Z,2.95
2019-06-26T22:39:31.317Z,3.37
2019-06-26T22:42:00.279Z,2.30
2019-06-26T22:44:29.209Z,1.90
2019-06-26T22:46:58.116Z,1.92
2019-06-26T22:49:27.062Z,2.87
2019-06-26T22:51:56.079Z,2.90
2019-06-26T22:54:24.985Z,2.12
2019-06-26T22:56:54.023Z,3.15
2019-06-26T22:59:22.976Z,2.52
2019-06-26T23:01:51.967Z,2.35
2019-06-26T23:04:20.993Z,2.27
2019-06-26T23:06:49.944Z,1.67
2019-06-26T23:09:18.866Z,2.80
2019-06-26T23:11:47.859Z,3.20
2019-06-26T23:14:16.901Z,1.90
2019-06-26T23:16:45.823Z,2.72
2019-06-26T23:19:15.113Z,3.85
2019-06-26T23:21:44.127Z,1.85
2019-06-26T23:24:13.188Z,3.12
2019-06-26T23:26:42.112Z,2.35
2019-06-26T23:29:11.070Z,2.83
2019-06-26T23:31:40.035Z,3.12
2019-06-26T23:34:08.933Z,2.70
2019-06-26T23:36:37.848Z,2.80
2019-06-26T23:39:06.799Z,2.90
2019-06-26T23:41:35.727Z,2.40
2019-06-26T23:44:04.620Z,1.67
2019-06-26T23:46:33.553Z,1.70
2019-06-26T23:49:02.499Z,2.15
2019-06-26T23:51:31.395Z,1.70
2019-06-26T23:54:00.349Z,3.08
2019-06-26T23:56:40.018Z,3.05
2019-06-26T23:59:00.654Z,3.12
